createdAt,value
2022-09-22T05:00:47.243Z,4.6
2022-09-22T05:01:53.091Z,4.6
2022-09-22T05:07:36.971Z,4.9
2022-09-22T05:13:13.694Z,5.1
2022-09-22T05:18:41.220Z,5.4
2022-09-22T05:24:24.235Z,5.7
2022-09-22T05:30:05.249Z,5.9
2022-09-22T05:35:42.240Z,6.3
2022-09-22T05:41:21.112Z,6.6
2022-09-22T05:42:01.676Z,6.6
2022-09-22T05:47:39.115Z,7
2022-09-22T05:53:17.926Z,7.5
2022-09-22T05:58:56.183Z,8.3
2022-09-22T06:04:43.372Z,9.1
2022-09-22T06:15:55.749Z,10.8
2022-09-22T06:27:07.146Z,12.4
2022-09-22T06:32:30.352Z,13.2
2022-09-22T06:38:07.301Z,13.9
2022-09-22T06:43:44.580Z,14.6
2022-09-22T06:49:22.982Z,15.4
2022-09-22T06:55:06.059Z,16.1
2022-09-22T07:01:10.093Z,16.7
2022-09-22T07:06:49.433Z,17.4
2022-09-22T07:12:32.042Z,18.4
2022-09-22T07:18:09.979Z,22.1
2022-09-22T07:23:48.664Z,29.8
2022-09-22T07:29:26.605Z,34.9
2022-09-22T07:35:09.917Z,37
2022-09-22T07:40:49.089Z,37.8
2022-09-22T07:46:29.094Z,39.4
2022-09-22T07:52:11.669Z,38.3
2022-09-22T07:57:50.148Z,38.3
2022-09-22T08:03:27.931Z,40.2
2022-09-22T08:08:53.518Z,39.3
2022-09-22T08:14:31.967Z,41
2022-09-22T08:20:13.849Z,42.3
2022-09-22T08:25:51.493Z,43.7
2022-09-22T08:31:35.601Z,43.8
2022-09-22T08:36:57.163Z,42.9
2022-09-22T08:42:38.210Z,44.3
2022-09-22T08:53:41.919Z,46.6
2022-09-22T08:59:23.401Z,47.5
2022-09-22T09:05:02.119Z,47.3
2022-09-22T09:10:40.783Z,46.1
2022-09-22T09:16:18.901Z,45.4
2022-09-22T09:21:58.984Z,47.8
2022-09-22T09:28:40.359Z,48.8
2022-09-22T09:34:08.200Z,49.6
2022-09-22T09:39:46.811Z,48.8
2022-09-22T09:45:31.194Z,50.2
2022-09-22T09:51:09.177Z,50.8
2022-09-22T09:56:54.493Z,51.3
2022-09-22T10:02:32.585Z,51.8
2022-09-22T10:08:12.832Z,52.6
2022-09-22T10:13:55.304Z,52.4
2022-09-22T10:19:17.712Z,51.4
2022-09-22T10:24:57.513Z,50.6
2022-09-22T10:36:01.455Z,52.9
2022-09-22T10:41:23.986Z,51.6
2022-09-22T10:47:27.726Z,53.2
2022-09-22T10:53:05.231Z,53.9
2022-09-22T10:58:42.236Z,54.3
2022-09-22T11:04:21.686Z,54.8
2022-09-22T11:10:00.037Z,55.4
2022-09-22T11:15:37.618Z,54.2
2022-09-22T11:21:16.396Z,53.1
2022-09-22T11:26:38.472Z,52.3
2022-09-22T11:32:28.243Z,51.4
2022-09-22T11:37:51.182Z,48.3
2022-09-22T11:43:28.877Z,44.9
2022-09-22T11:49:06.803Z,43
2022-09-22T11:54:49.570Z,42.2
2022-09-22T12:00:27.300Z,41.4
2022-09-22T12:11:37.396Z,41.4
2022-09-22T12:22:40.125Z,51.7
2022-09-22T12:28:40.635Z,52.1
2022-09-22T12:34:18.097Z,51.8
2022-09-22T12:39:59.826Z,51.2
2022-09-22T12:45:39.954Z,52.1
2022-09-22T12:56:25.492Z,52.2
2022-09-22T13:02:04.513Z,51.4
2022-09-22T13:23:39.966Z,51.6
2022-09-22T13:34:36.559Z,50.4
2022-09-22T13:40:14.191Z,47.8
2022-09-22T13:45:36.846Z,44.8
2022-09-22T13:51:17.459Z,41.9
2022-09-22T13:56:59.724Z,39.6
2022-09-22T14:14:13.044Z,36.2
2022-09-22T14:19:51.097Z,35.3
2022-09-22T14:25:29.215Z,34.9
2022-09-22T14:31:06.988Z,35.1
2022-09-22T14:36:44.949Z,33.9
2022-09-22T14:42:55.888Z,33.4
2022-09-22T14:48:33.515Z,33.3
2022-09-22T14:54:11.854Z,32.8
2022-09-22T14:59:51.983Z,32.1
2022-09-22T15:05:15.171Z,31.4
2022-09-22T15:10:52.459Z,30.4
2022-09-22T15:21:55.892Z,28.6
2022-09-22T15:27:36.059Z,27.7
2022-09-22T15:38:36.466Z,25.8
2022-09-22T15:49:44.185Z,24.1
2022-09-22T16:00:47.209Z,22.6
2022-09-22T16:06:15.496Z,21.8
2022-09-22T16:17:14.895Z,20.4
2022-09-22T16:22:53.550Z,19.7
2022-09-22T16:28:34.284Z,19.1
2022-09-22T16:34:11.801Z,18.4
2022-09-22T16:39:34.726Z,17.8
2022-09-22T16:49:02.044Z,16.8
2022-09-22T16:54:24.156Z,16.1
2022-09-22T17:05:18.716Z,14.6
2022-09-22T17:10:59.190Z,13.9
2022-09-22T17:16:37.701Z,13.4
2022-09-22T17:22:15.425Z,12.8
2022-09-22T17:27:52.328Z,12.4
2022-09-22T17:33:02.614Z,11.9
2022-09-22T17:38:24.179Z,11.6
2022-09-22T17:44:02.117Z,11.2
2022-09-22T17:49:25.052Z,10.9
2022-09-22T17:54:46.591Z,10.6
2022-09-22T18:05:52.113Z,10
2022-09-22T18:16:47.045Z,9.5
2022-09-22T18:22:25.146Z,9.3
2022-09-22T18:28:03.384Z,9.1
2022-09-22T18:33:41.275Z,8.9
2022-09-22T18:39:08.251Z,8.8
2022-09-22T18:44:47.845Z,8.6
2022-09-22T18:50:25.795Z,8.5
2022-09-22T18:56:05.185Z,8.3
2022-09-22T19:01:44.313Z,8.2
2022-09-22T19:07:08.154Z,8.1
2022-09-22T19:12:49.794Z,7.9
2022-09-22T19:18:16.652Z,7.8
2022-09-22T19:23:58.385Z,7.7
2022-09-22T19:29:22.813Z,7.6
2022-09-22T19:35:03.469Z,7.4
2022-09-22T19:40:43.941Z,7.3
2022-09-22T19:51:44.734Z,7.1
2022-09-22T19:57:07.151Z,7.1
2022-09-22T20:02:45.970Z,7
2022-09-22T20:08:07.200Z,6.9
2022-09-22T20:14:00.557Z,6.8
2022-09-22T20:19:39.346Z,6.8
2022-09-22T20:25:16.429Z,6.6
2022-09-22T20:30:38.339Z,6.6
2022-09-22T20:36:16.933Z,6.5
2022-09-22T20:41:41.505Z,6.4
2022-09-22T20:47:18.839Z,6.4
2022-09-22T20:53:00.820Z,6.3
2022-09-22T20:58:26.618Z,6.3
2022-09-22T21:04:05.144Z,6.2
2022-09-22T21:09:42.980Z,6.1
2022-09-22T21:15:22.780Z,6.1
2022-09-22T21:21:00.379Z,6.1
2022-09-22T21:26:38.805Z,6
2022-09-22T21:32:16.336Z,6
2022-09-22T21:37:43.673Z,6
2022-09-22T21:43:22.186Z,5.9
2022-09-22T21:48:59.717Z,5.9
2022-09-22T21:54:36.521Z,5.9
2022-09-22T22:00:15.256Z,5.9
2022-09-22T22:05:56.675Z,5.9
2022-09-22T22:11:33.534Z,5.9
2022-09-22T22:16:56.101Z,5.9
2022-09-22T22:22:17.359Z,5.9
2022-09-22T22:27:54.854Z,5.9
2022-09-22T22:33:33.713Z,5.9
2022-09-22T22:44:00.958Z,5.8
2022-09-22T22:54:48.768Z,5.6
2022-09-22T23:00:16.225Z,5.6
2022-09-22T23:05:42.842Z,5.5
2022-09-22T23:11:04.370Z,5.4
2022-09-22T23:16:41.385Z,5.4
2022-09-22T23:22:03.831Z,5.3
2022-09-22T23:27:41.807Z,5.2
2022-09-22T23:33:18.511Z,5.1
2022-09-22T23:44:17.770Z,5
2022-09-22T23:49:55.764Z,4.9
2022-09-22T23:55:18.648Z,4.9
